This is the latest recevied weather packets stored in our database for station/object HB9MZI. If no packets are shown the sender has not sent any weather packets the latest 10 day(s).
| Time | Temp. | Humidity | Pressure | Rain* | Wind** | Luminosity | Snow |
|---|---|---|---|---|---|---|---|
| 1778228521 | 16.67° C | 88% | 992.1 hPa | 0 mm | 0.45 m/s, 60° | - | - |
| 1778228219 | 16.11° C | 90% | 992.1 hPa | 0 mm | 0 m/s | - | - |
| 1778227917 | 16.11° C | 91% | 992.2 hPa | 0 mm | 0 m/s | - | - |
| 1778227616 | 16.11° C | 91% | 992.2 hPa | 0 mm | 0.45 m/s, 45° | - | - |
| 1778227313 | 16.11° C | 91% | 992.2 hPa | 0 mm | 0 m/s | - | - |
| 1778226708 | 15.56° C | 91% | 992.2 hPa | 0 mm | 0.89 m/s, 23° | - | - |
| 1778224592 | 15° C | 92% | 992.2 hPa | 0 mm | 0 m/s | - | - |
| 1778223383 | 14.44° C | 96% | 992 hPa | 0 mm | 0 m/s | - | - |
| 1778223081 | 13.89° C | 98% | 992 hPa | 0 mm | 0 m/s | - | - |
| 1778222173 | 13.33° C | 99% | 992 hPa | 0 mm | 0 m/s | - | - |
| 1778221872 | 13.33° C | 99% | 992 hPa | 0 mm | 0 m/s | - | - |
| 1778221569 | 13.33° C | 100% | 992 hPa | 0 mm | 0 m/s | - | - |
| 1778220964 | 12.78° C | 100% | 992 hPa | 0 mm | 0 m/s | - | - |
| 1778218243 | 12.22° C | 100% | 992 hPa | 0 mm | 0 m/s | - | - |
| 1778217641 | 12.22° C | 100% | 992.1 hPa | 0 mm | 0 m/s | - | - |
| 1778073603 | 8.89° C | 100% | 992 hPa | 0 mm | 0 m/s | - | - |
| 1778052854 | 12.22° C | 100% | 984.5 hPa | 0.51 mm | 0 m/s | - | - |
| 1778051039 | 12.22° C | 100% | 984.6 hPa | 0.51 mm | 1.79 m/s, 128° | - | - |
| 1778050737 | 12.22° C | 100% | 984.6 hPa | 0.51 mm | 0.89 m/s, 160° | - | - |
| 1778050436 | 12.22° C | 100% | 984.7 hPa | 0.51 mm | 0 m/s | - | - |
| 1778049829 | 12.22° C | 100% | 984.7 hPa | 1.78 mm | 0.45 m/s, 208° | - | - |
| 1778049527 | 12.22° C | 100% | 984.7 hPa | 1.78 mm | 0.89 m/s, 160° | - | - |
| 1778048015 | 12.22° C | 100% | 985.2 hPa | 1.78 mm | 0.45 m/s, 139° | - | - |
| 1778047411 | 12.22° C | 100% | 985.2 hPa | 1.78 mm | 0 m/s | - | - |
| 1778046806 | 12.22° C | 100% | 985.1 hPa | 1.78 mm | 0 m/s | - | - |
* Rain latest hour (hover to see other rain measurements)
** Current wind speed in m/s (hover to see current wind gust speed)